Time;durP1;ratioP1;P1;durP2;ratioP2;P2;SDS_P1;SDS_P2;PMS_P1;PMS_P2;Temp;Humidity;BMP_temperature;BMP_pressure;BME280_temperature;BME280_humidity;BME280_pressure;Samples;Min_cycle;Max_cycle;Signal;HPM_P1;HPM_P2
2022/04/02 00:02:22;;;;;;;5.28;4.38;;;;;;;15.68;37.06;91745.97;5050039;28;20044;-91
2022/04/02 00:04:48;;;;;;;6.50;5.35;;;;;;;15.69;37.08;91744.72;5033972;28;20045;-92
2022/04/02 00:07:13;;;;;;;5.18;4.50;;;;;;;15.71;37.07;91742.94;5028585;28;20398;-92
2022/04/02 00:09:39;;;;;;;6.00;4.88;;;;;;;15.70;37.22;91746.91;5030837;28;20037;-92
2022/04/02 00:12:04;;;;;;;6.45;5.00;;;;;;;15.71;37.08;91742.19;5013712;28;20037;-91
2022/04/02 00:14:30;;;;;;;6.47;5.45;;;;;;;15.69;37.31;91745.47;5047082;28;20037;-92
2022/04/02 00:16:55;;;;;;;6.28;4.78;;;;;;;15.68;37.13;91745.97;5014418;28;20057;-93
2022/04/02 00:19:21;;;;;;;6.47;4.97;;;;;;;15.68;37.00;91744.00;4997101;28;20249;-93
2022/04/02 00:21:46;;;;;;;5.75;4.72;;;;;;;15.68;37.29;91751.44;5015209;28;20120;-91
2022/04/02 00:24:12;;;;;;;5.70;4.60;;;;;;;15.70;37.27;91746.91;5029459;28;20030;-92
2022/04/02 00:26:37;;;;;;;6.22;4.55;;;;;;;15.67;37.00;91747.25;5049465;28;20392;-92
2022/04/02 00:29:05;;;;;;;7.22;5.32;;;;;;;15.66;36.97;91743.78;5033530;28;20036;-92
2022/04/02 00:31:32;;;;;;;6.00;4.80;;;;;;;15.69;37.11;91731.09;5033966;28;20044;-92
2022/04/02 00:33:57;;;;;;;6.07;4.97;;;;;;;15.69;37.02;91744.72;5017297;28;20078;-92
2022/04/02 00:36:23;;;;;;;6.15;5.13;;;;;;;15.68;37.37;91737.81;5016449;28;20044;-91
2022/04/02 00:38:48;;;;;;;6.65;5.25;;;;;;;15.67;37.36;91739.81;5015192;28;20062;-91
2022/04/02 00:41:16;;;;;;;5.50;4.60;;;;;;;15.67;36.90;91736.34;5029400;28;20063;-92
2022/04/02 00:43:59;;;;;;;6.65;5.25;;;;;;;15.67;37.03;91739.81;5014497;28;20099;-92
2022/04/02 00:46:25;;;;;;;6.47;5.15;;;;;;;15.70;37.14;91746.19;5014132;28;20132;-93
2022/04/02 00:48:50;;;;;;;6.95;5.35;;;;;;;15.66;36.93;91743.78;4997672;28;20037;-92
2022/04/02 00:51:16;;;;;;;5.32;4.63;;;;;;;15.67;37.09;91755.41;4996645;28;20060;-91
2022/04/02 00:53:43;;;;;;;6.30;4.95;;;;;;;15.66;37.18;91753.97;5012377;28;20028;-91
2022/04/02 00:56:08;;;;;;;6.00;4.97;;;;;;;15.66;37.10;91746.50;5029058;28;20447;-92
2022/04/02 00:58:34;;;;;;;6.22;5.05;;;;;;;15.66;37.06;91740.34;5030390;28;20071;-91
2022/04/02 01:00:59;;;;;;;5.93;4.60;;;;;;;15.65;37.31;91742.34;5031761;28;20021;-92
2022/04/02 01:03:25;;;;;;;5.70;4.75;;;;;;;15.68;37.19;91740.53;5049980;28;20135;-92
2022/04/02 01:05:50;;;;;;;7.07;5.25;;;;;;;15.68;36.78;91732.38;5033686;28;20087;-92
2022/04/02 01:08:16;;;;;;;7.28;4.82;;;;;;;15.66;36.83;91738.34;5032932;28;20116;-92
2022/04/02 01:10:42;;;;;;;6.28;4.65;;;;;;;15.67;37.50;91747.25;5034162;28;20113;-93
2022/04/02 01:13:08;;;;;;;5.22;4.38;;;;;;;15.66;36.87;91751.97;5017272;28;20033;-91
2022/04/02 01:15:34;;;;;;;5.80;4.47;;;;;;;15.65;37.16;91752.50;5033363;28;20056;-91
2022/04/02 01:17:59;;;;;;;6.15;5.00;;;;;;;15.67;36.89;91761.59;5033902;28;20068;-91
2022/04/02 01:20:25;;;;;;;7.82;5.00;;;;;;;15.66;37.10;91762.84;5033297;28;20063;-92
2022/04/02 01:22:50;;;;;;;8.45;5.07;;;;;;;15.65;37.04;91757.94;5017183;28;20583;-92
2022/04/02 01:25:16;;;;;;;6.30;5.15;;;;;;;15.69;36.97;91758.34;5000428;28;20053;-91
2022/04/02 01:27:42;;;;;;;5.88;5.25;;;;;;;15.66;36.83;91764.84;5017047;28;20099;-92
2022/04/02 01:30:08;;;;;;;7.10;4.93;;;;;;;15.67;36.95;91756.16;5032729;28;20063;-93
2022/04/02 01:32:33;;;;;;;9.25;4.95;;;;;;;15.64;37.06;91757.22;5033433;28;20087;-91
2022/04/02 01:34:59;;;;;;;6.43;5.22;;;;;;;15.64;37.00;91754.50;5050294;28;20045;-91
2022/04/02 01:37:24;;;;;;;5.07;4.15;;;;;;;15.65;37.05;91763.38;5033936;28;20041;-92
2022/04/02 01:39:50;;;;;;;6.20;4.82;;;;;;;15.68;36.95;91754.16;5036665;28;20036;-92
2022/04/02 01:42:20;;;;;;;5.63;4.70;;;;;;;15.64;37.11;91756.47;5036122;28;20043;-92
2022/04/02 01:44:51;;;;;;;6.13;5.00;;;;;;;15.66;37.10;91765.59;5031319;28;20043;-92
2022/04/02 01:47:17;;;;;;;6.18;4.45;;;;;;;15.66;36.76;91751.97;5046008;28;20040;-91
2022/04/02 01:49:43;;;;;;;5.63;4.68;;;;;;;15.64;36.67;91753.75;5073349;28;20550;-92
2022/04/02 01:52:09;;;;;;;6.40;4.82;;;;;;;15.63;36.81;91761.19;5071380;28;20050;-93
2022/04/02 01:54:34;;;;;;;6.35;4.65;;;;;;;15.66;37.07;91765.59;5033375;28;20037;-90
2022/04/02 01:57:01;;;;;;;5.25;4.43;;;;;;;15.65;36.93;91760.66;5033059;28;20059;-91
2022/04/02 01:59:26;;;;;;;8.07;4.85;;;;;;;15.66;36.70;91757.41;5032907;28;20044;-90
2022/04/02 02:01:53;;;;;;;6.00;4.68;;;;;;;15.65;37.26;91755.94;5016542;28;20033;-92
2022/04/02 02:04:18;;;;;;;5.72;4.80;;;;;;;15.64;36.99;91753.75;5032184;28;20045;-92
2022/04/02 02:06:45;;;;;;;5.60;4.65;;;;;;;15.65;36.73;91760.66;5032329;28;20608;-92
2022/04/02 02:09:11;;;;;;;6.78;4.60;;;;;;;15.63;36.75;91752.28;5015775;28;20124;-91
2022/04/02 02:11:37;;;;;;;4.63;4.03;;;;;;;15.65;36.92;91747.03;5022253;28;20044;-92
2022/04/02 02:14:02;;;;;;;5.95;4.65;;;;;;;15.65;36.80;91753.22;5034776;28;20068;-92
2022/04/02 02:16:28;;;;;;;5.97;4.57;;;;;;;15.65;36.78;91749.78;5032427;28;20037;-92
2022/04/02 02:18:53;;;;;;;5.65;4.75;;;;;;;15.67;36.75;91747.25;5052558;28;20035;-92
2022/04/02 02:21:19;;;;;;;5.30;4.40;;;;;;;15.63;36.99;91758.47;5051259;28;20032;-92
2022/04/02 02:23:45;;;;;;;5.32;4.28;;;;;;;15.63;37.00;91755.75;5026481;28;20033;-92
2022/04/02 02:26:10;;;;;;;5.60;4.70;;;;;;;15.65;36.72;91760.66;5049591;28;20041;-92
2022/04/02 02:28:36;;;;;;;5.43;4.30;;;;;;;15.64;36.74;91751.03;5052031;28;20059;-93
2022/04/02 02:31:02;;;;;;;5.88;4.88;;;;;;;15.63;36.64;91763.91;5035696;28;20052;-91
2022/04/02 02:36:11;;;;;;;5.22;4.32;;;;;;;15.64;36.95;91751.75;5054784;28;20518;-92
2022/04/02 02:38:36;;;;;;;5.63;4.72;;;;;;;15.65;36.94;91755.22;5035492;28;20036;-91
2022/04/02 02:41:03;;;;;;;5.57;4.55;;;;;;;15.64;36.79;91751.03;5034742;28;20036;-90
2022/04/02 02:43:28;;;;;;;4.22;3.65;;;;;;;15.64;36.79;91753.75;5035225;28;20040;-93
2022/04/02 02:45:54;;;;;;;5.85;4.25;;;;;;;15.64;36.99;91751.03;5027419;28;20040;-91
2022/04/02 02:48:19;;;;;;;5.30;4.22;;;;;;;15.63;36.86;91752.28;5031371;28;20503;-92
2022/04/02 02:50:45;;;;;;;4.60;3.85;;;;;;;15.64;36.93;91751.03;5032215;28;20036;-92
2022/04/02 02:53:10;;;;;;;5.68;4.30;;;;;;;15.64;36.54;91749.03;5005364;28;20040;-91
2022/04/02 02:55:36;;;;;;;5.03;4.53;;;;;;;15.64;36.46;91743.59;5014889;28;20033;-91
2022/04/02 02:58:02;;;;;;;5.57;4.38;;;;;;;15.64;36.94;91748.31;5032076;28;20036;-91
2022/04/02 03:00:27;;;;;;;5.13;4.10;;;;;;;15.67;36.62;91747.97;5031690;28;20030;-92
2022/04/02 03:02:54;;;;;;;6.15;4.03;;;;;;;15.64;36.52;91743.59;5031648;28;20041;-91
2022/04/02 03:05:19;;;;;;;5.07;4.38;;;;;;;15.63;36.81;91749.56;5030358;28;20033;-91
2022/04/02 03:07:48;;;;;;;5.70;4.57;;;;;;;15.64;36.52;91746.31;5047959;28;20068;-92
2022/04/02 03:10:18;;;;;;;5.43;4.43;;;;;;;15.64;36.52;91751.03;5030825;28;20029;-91
2022/04/02 03:12:44;;;;;;;4.78;4.00;;;;;;;15.62;36.87;91764.44;5031509;28;20037;-92
2022/04/02 03:15:10;;;;;;;4.60;4.10;;;;;;;15.61;36.61;91758.28;5030943;28;20048;-91
2022/04/02 03:17:36;;;;;;;5.55;4.10;;;;;;;15.66;36.57;91756.69;5031494;28;20124;-91
2022/04/02 03:20:01;;;;;;;5.28;4.05;;;;;;;15.65;36.63;91764.13;5031313;28;20029;-91
2022/04/02 03:22:27;;;;;;;5.10;4.00;;;;;;;15.63;36.65;91763.19;5014572;28;20045;-92
2022/04/02 03:24:54;;;;;;;4.65;3.95;;;;;;;15.63;36.75;91761.19;5014006;28;20036;-91
2022/04/02 03:27:19;;;;;;;5.32;4.18;;;;;;;15.62;36.73;91759.72;5030758;28;20504;-92
2022/04/02 03:29:45;;;;;;;5.60;3.95;;;;;;;15.65;36.80;91755.94;5030975;28;20072;-91
2022/04/02 03:32:10;;;;;;;5.60;4.38;;;;;;;15.65;36.74;91760.66;5030882;28;20033;-93
2022/04/02 03:34:36;;;;;;;4.78;4.00;;;;;;;15.65;36.66;91758.69;5008334;28;20069;-92
2022/04/02 03:37:01;;;;;;;6.10;4.78;;;;;;;15.63;36.52;91768.63;5011480;28;20258;-91
2022/04/02 03:39:26;;;;;;;6.00;4.70;;;;;;;15.62;36.58;91759.72;5012119;28;20136;-91
2022/04/02 03:41:54;;;;;;;5.25;4.20;;;;;;;15.63;36.67;91765.91;5014930;28;20033;-92
2022/04/02 03:44:19;;;;;;;4.80;4.10;;;;;;;15.61;36.62;91768.44;5014183;28;20036;-92
2022/04/02 03:49:29;;;;;;;5.97;4.70;;;;;;;15.63;36.58;91763.19;5012828;28;20662;-92
2022/04/02 03:51:55;;;;;;;5.15;4.13;;;;;;;15.63;36.79;91760.47;5013214;28;20555;-92
2022/04/02 03:54:21;;;;;;;5.45;4.63;;;;;;;15.62;36.49;91767.91;5041355;28;20082;-92
2022/04/02 03:56:46;;;;;;;5.97;4.10;;;;;;;15.62;36.69;91767.91;5031292;28;20044;-91
2022/04/02 03:59:12;;;;;;;5.13;4.00;;;;;;;15.65;36.73;91766.13;5014068;28;20124;-91
2022/04/02 04:01:38;;;;;;;4.63;4.00;;;;;;;15.62;36.64;91765.19;5047040;28;20063;-91
2022/04/02 04:04:05;;;;;;;7.00;4.57;;;;;;;15.61;36.61;91760.25;5030152;28;20044;-91
2022/04/02 04:06:31;;;;;;;5.95;4.13;;;;;;;15.62;36.55;91761.72;5014340;28;20075;-92
2022/04/02 04:08:58;;;;;;;5.32;4.18;;;;;;;15.63;36.38;91772.09;5014796;28;20488;-90
2022/04/02 04:11:25;;;;;;;4.53;3.95;;;;;;;15.62;36.55;91769.91;4997269;28;20067;-92
2022/04/02 04:13:51;;;;;;;4.55;3.72;;;;;;;15.61;36.76;91769.16;5030729;28;20063;-92
2022/04/02 04:16:16;;;;;;;5.20;4.20;;;;;;;15.62;36.76;91772.63;5029528;28;20559;-92
2022/04/02 04:18:42;;;;;;;5.40;3.67;;;;;;;15.61;36.60;91779.34;4997876;28;20037;-91
2022/04/02 04:21:07;;;;;;;4.53;3.72;;;;;;;15.63;36.55;91776.81;5013430;28;20067;-92
2022/04/02 04:23:34;;;;;;;5.50;4.00;;;;;;;15.62;36.55;91780.78;5013493;28;20037;-92
2022/04/02 04:26:00;;;;;;;5.10;3.85;;;;;;;15.60;36.80;91784.03;5031028;28;20037;-93
2022/04/02 04:28:25;;;;;;;6.35;4.30;;;;;;;15.61;36.56;91782.78;4996984;28;20083;-92
2022/04/02 04:30:51;;;;;;;5.18;3.75;;;;;;;15.61;36.60;91784.78;5013665;28;20095;-93
2022/04/02 04:33:16;;;;;;;5.60;4.10;;;;;;;15.61;36.59;91787.50;5013005;28;20029;-91
2022/04/02 04:35:42;;;;;;;4.93;3.88;;;;;;;15.62;36.76;91788.97;4997771;28;20046;-92
2022/04/02 04:38:07;;;;;;;5.25;4.22;;;;;;;15.61;36.73;91776.59;5010499;28;20034;-91
2022/04/02 04:40:33;;;;;;;5.05;3.80;;;;;;;15.62;36.66;91786.97;5010692;28;20575;-93
2022/04/02 04:42:58;;;;;;;4.45;3.65;;;;;;;15.63;36.61;91795.88;4993896;28;20049;-92
2022/04/02 04:45:24;;;;;;;5.13;3.60;;;;;;;15.56;36.00;91789.13;5010322;28;20408;-92
2022/04/02 04:47:49;;;;;;;10.85;6.63;;;;;;;15.35;33.25;91789.06;5010582;28;20235;-91
2022/04/02 04:50:15;;;;;;;17.08;9.55;;;;;;;15.25;32.58;91800.94;5009476;28;20045;-91
2022/04/02 04:52:40;;;;;;;16.88;10.07;;;;;;;15.09;31.78;91791.88;4996463;28;20049;-92
2022/04/02 04:55:06;;;;;;;17.20;9.65;;;;;;;14.98;31.66;91794.84;5015653;28;20041;-92
2022/04/02 04:57:32;;;;;;;19.17;10.18;;;;;;;14.92;30.91;91803.13;5006847;28;20065;-92
2022/04/02 04:59:58;;;;;;;25.05;10.93;;;;;;;14.84;31.15;91796.88;4998263;28;20049;-92
2022/04/02 05:02:23;;;;;;;18.20;10.30;;;;;;;14.72;30.59;91803.81;5013978;28;20045;-91
2022/04/02 05:04:49;;;;;;;20.23;11.68;;;;;;;14.69;30.39;91796.69;5001126;28;20036;-93
2022/04/02 05:07:15;;;;;;;23.67;13.18;;;;;;;14.58;29.85;91811.22;5010998;28;20369;-93
2022/04/02 05:09:52;;;;;;;21.90;12.48;;;;;;;14.55;29.77;91806.09;5027665;28;20048;-92
2022/04/02 05:12:23;;;;;;;18.00;10.60;;;;;;;14.52;30.22;91816.03;4971456;28;20034;-93
2022/04/02 05:14:49;;;;;;;26.63;11.35;;;;;;;14.49;29.96;91816.38;4916393;29;20039;-92
2022/04/02 05:17:17;;;;;;;22.30;12.27;;;;;;;14.52;29.32;91815.31;4937142;28;20051;-92
2022/04/02 05:19:45;;;;;;;25.75;13.30;;;;;;;14.60;29.72;91806.00;4934353;29;20505;-94
2022/04/02 05:22:11;;;;;;;23.48;13.27;;;;;;;14.70;29.66;91811.75;4925691;29;20036;-92
2022/04/02 05:24:37;;;;;;;26.58;12.35;;;;;;;14.78;30.38;91809.84;4924289;29;20040;-93
2022/04/02 05:27:03;;;;;;;20.63;12.30;;;;;;;14.86;30.78;91823.53;4916759;29;20066;-92
2022/04/02 05:29:29;;;;;;;19.13;11.43;;;;;;;14.92;31.59;91814.03;4931388;29;20050;-92
2022/04/02 05:31:56;;;;;;;16.30;11.07;;;;;;;14.93;31.64;91817.47;4938894;29;20031;-91
2022/04/02 05:34:21;;;;;;;15.18;10.35;;;;;;;14.99;31.79;91812.63;4939614;28;20043;-93
2022/04/02 05:36:47;;;;;;;13.73;9.55;;;;;;;15.01;32.09;91810.84;4938719;28;20075;-93
2022/04/02 05:39:12;;;;;;;12.30;9.60;;;;;;;15.02;32.68;91811.56;4935262;28;20078;-93
2022/04/02 05:41:38;;;;;;;12.80;9.43;;;;;;;15.07;33.16;91818.91;4960993;28;20039;-93
2022/04/02 05:44:07;;;;;;;12.05;8.93;;;;;;;15.09;32.74;91819.09;4993228;28;20042;-93
2022/04/02 05:46:34;;;;;;;14.27;7.90;;;;;;;15.09;33.62;91830.72;4996912;28;20110;-92
2022/04/02 05:49:08;;;;;;;11.40;8.30;;;;;;;15.12;33.03;91817.31;4994136;28;20037;-93
2022/04/02 05:51:34;;;;;;;17.27;9.43;;;;;;;15.13;32.94;91830.41;4983044;28;20050;-93
2022/04/02 05:54:00;;;;;;;17.92;8.30;;;;;;;15.14;33.46;91831.88;4985538;28;20038;-93
2022/04/02 05:56:27;;;;;;;13.40;8.48;;;;;;;15.15;33.01;91830.59;4988361;28;20076;-92
2022/04/02 05:58:53;;;;;;;11.73;8.75;;;;;;;15.19;32.99;91838.44;4982392;28;20060;-93
2022/04/02 06:01:18;;;;;;;13.88;8.75;;;;;;;15.22;32.79;91838.09;4998046;28;20038;-92
2022/04/02 06:03:44;;;;;;;15.50;8.95;;;;;;;15.21;33.08;91841.34;4998020;28;20041;-92
2022/04/02 06:06:10;;;;;;;13.18;8.07;;;;;;;15.20;33.17;91843.34;4999993;28;20537;-93
2022/04/02 06:08:35;;;;;;;14.35;9.20;;;;;;;15.24;32.57;91835.59;5051899;28;20033;-93
2022/04/02 06:11:01;;;;;;;11.48;8.52;;;;;;;15.25;33.19;91839.78;5035008;28;20041;-93
2022/04/02 06:13:26;;;;;;;12.00;8.38;;;;;;;15.22;33.09;91846.28;5018222;28;20072;-93
2022/04/02 06:15:53;;;;;;;10.02;8.40;;;;;;;15.24;33.12;91846.47;5036537;28;20151;-92
2022/04/02 06:18:18;;;;;;;21.85;13.27;;;;;;;15.26;33.29;91843.97;5052848;28;20470;-93
2022/04/02 06:20:45;;;;;;;22.05;10.27;;;;;;;15.27;33.04;91841.97;5035040;28;20120;-89
2022/04/02 06:23:11;;;;;;;12.82;8.73;;;;;;;15.28;33.27;91840.72;5046270;28;20434;-91
2022/04/02 06:25:36;;;;;;;16.10;8.15;;;;;;;15.32;33.16;91849.28;5035592;28;20120;-89
2022/04/02 06:28:01;;;;;;;19.90;8.50;;;;;;;15.30;33.13;91849.09;5048856;28;20032;-89
2022/04/02 06:30:27;;;;;;;13.85;10.60;;;;;;;15.28;33.10;91852.34;5015028;28;20033;-91
2022/04/02 06:32:53;;;;;;;18.00;10.23;;;;;;;15.27;33.29;91855.59;5029752;28;20072;-90
2022/04/02 06:35:19;;;;;;;26.85;11.07;;;;;;;15.29;32.99;91851.09;5033253;28;20159;-91
2022/04/02 06:37:45;;;;;;;13.38;8.60;;;;;;;15.31;33.43;91861.44;5033259;28;20041;-90
2022/04/02 06:40:11;;;;;;;12.50;8.10;;;;;;;15.30;33.24;91854.53;5033507;28;20083;-89
2022/04/02 06:42:36;;;;;;;12.68;8.90;;;;;;;15.29;33.26;91855.78;5015084;28;20041;-89
2022/04/02 06:45:04;;;;;;;14.27;8.52;;;;;;;15.30;33.43;91860.72;5017587;28;20033;-89
2022/04/02 06:47:30;;;;;;;17.08;8.35;;;;;;;15.30;33.60;91874.31;5052688;28;20041;-92
2022/04/02 06:49:55;;;;;;;12.43;8.23;;;;;;;15.32;33.39;91874.53;5069324;28;20443;-89
2022/04/02 06:52:22;;;;;;;14.88;8.68;;;;;;;15.33;33.58;91870.56;5035049;28;20108;-90
2022/04/02 06:54:47;;;;;;;14.52;8.95;;;;;;;15.33;33.44;91880.72;5032116;28;20363;-90
2022/04/02 06:57:21;;;;;;;29.05;11.93;;;;;;;15.32;33.34;91879.97;5016127;28;20048;-89
2022/04/02 06:59:46;;;;;;;21.83;8.98;;;;;;;15.34;33.48;91874.00;5052237;28;20075;-90
2022/04/02 07:02:12;;;;;;;14.52;9.18;;;;;;;15.33;33.46;91886.16;5033881;28;20526;-90
2022/04/02 07:04:37;;;;;;;16.27;9.98;;;;;;;15.35;33.86;91878.19;5052891;28;20466;-90
2022/04/02 07:07:03;;;;;;;15.27;8.75;;;;;;;15.36;33.43;91893.28;5021596;28;20044;-89
2022/04/02 07:09:28;;;;;;;16.88;9.10;;;;;;;15.35;33.70;91884.38;5053204;28;20048;-91
2022/04/02 07:11:58;;;;;;;20.58;9.07;;;;;;;15.35;33.70;91894.53;5035880;28;20749;-91
2022/04/02 07:14:23;;;;;;;19.85;12.02;;;;;;;15.41;33.78;91906.75;5053603;28;20098;-90
2022/04/02 07:16:48;;;;;;;24.40;13.15;;;;;;;15.40;33.55;91905.28;5068471;28;20040;-89
2022/04/02 07:19:14;;;;;;;29.48;14.35;;;;;;;15.41;33.77;91909.47;5034134;28;20036;-88
2022/04/02 07:21:43;;;;;;;30.15;15.45;;;;;;;15.41;33.79;91914.91;5040818;28;20789;-89
2022/04/02 07:24:08;;;;;;;29.75;15.73;;;;;;;15.41;33.45;91916.91;5052972;28;20074;-91
2022/04/02 07:26:34;;;;;;;34.85;16.77;;;;;;;15.43;33.88;91906.94;5038389;28;20048;-89
2022/04/02 07:29:00;;;;;;;29.90;15.68;;;;;;;15.49;33.94;91914.28;5059351;28;20035;-91
2022/04/02 07:31:25;;;;;;;29.25;16.23;;;;;;;15.49;33.80;91922.44;5063638;28;20045;-90
2022/04/02 07:33:51;;;;;;;24.50;13.50;;;;;;;15.52;33.92;91926.84;5072795;28;20510;-88
2022/04/02 07:36:24;;;;;;;44.17;16.02;;;;;;;15.51;34.18;91928.09;5038610;28;20376;-91
2022/04/02 07:39:03;;;;;;;40.03;15.85;;;;;;;15.47;33.88;91939.31;5047685;28;20036;-91
2022/04/02 07:41:33;;;;;;;28.08;13.93;;;;;;;15.46;33.96;91926.94;5015997;28;20044;-91
2022/04/02 07:44:02;;;;;;;38.58;18.85;;;;;;;15.46;34.00;91926.94;5033277;28;20261;-89
2022/04/02 07:46:30;;;;;;;31.17;14.57;;;;;;;15.51;33.68;91925.38;5025015;28;20041;-89
2022/04/02 07:48:56;;;;;;;26.30;13.07;;;;;;;15.46;33.81;91928.94;5030633;28;20351;-91
2022/04/02 07:51:21;;;;;;;34.08;14.50;;;;;;;15.47;34.08;91931.13;5029506;28;20484;-88
2022/04/02 07:53:49;;;;;;;23.48;13.05;;;;;;;15.46;33.86;91926.94;5064064;28;20044;-90
2022/04/02 07:56:18;;;;;;;34.50;15.40;;;;;;;15.46;33.70;91934.38;5032854;28;20044;-90
2022/04/02 07:58:51;;;;;;;31.23;13.15;;;;;;;15.48;33.81;91934.59;5036607;28;20055;-88
2022/04/02 08:01:18;;;;;;;30.20;13.63;;;;;;;15.47;33.91;91936.59;5005891;28;20083;-90
2022/04/02 08:03:44;;;;;;;24.73;15.18;;;;;;;15.48;33.89;91932.59;5030675;28;20064;-90
2022/04/02 08:06:09;;;;;;;40.83;17.67;;;;;;;15.50;34.04;91932.81;5013966;28;20052;-90
2022/04/02 08:08:35;;;;;;;141.73;43.20;;;;;;;15.47;34.14;91946.75;5031631;28;20037;-90
2022/04/02 08:11:01;;;;;;;54.53;23.52;;;;;;;15.53;34.13;91950.09;5035004;28;20037;-88
2022/04/02 08:13:28;;;;;;;58.53;25.60;;;;;;;15.53;33.70;91945.38;5013226;28;20110;-89
2022/04/02 08:15:54;;;;;;;55.50;26.10;;;;;;;15.57;33.98;91948.53;5014181;28;20033;-89
2022/04/02 08:18:26;;;;;;;62.55;25.60;;;;;;;15.53;33.96;91950.81;5014177;28;20388;-90
2022/04/02 08:20:51;;;;;;;74.75;26.02;;;;;;;15.53;34.23;91956.28;5014432;28;20033;-90
2022/04/02 08:23:17;;;;;;;90.15;29.95;;;;;;;15.52;33.96;91951.34;5026195;28;20086;-90
2022/04/02 08:26:01;;;;;;;74.57;27.75;;;;;;;15.55;34.04;91959.22;5046824;28;20448;-91
2022/04/02 08:28:33;;;;;;;76.28;27.25;;;;;;;15.53;34.08;91966.44;5030299;28;20123;-90
2022/04/02 08:31:06;;;;;;;71.90;25.73;;;;;;;15.52;33.85;91964.97;5030430;28;20037;-90
2022/04/02 08:33:34;;;;;;;74.85;26.85;;;;;;;15.53;33.99;91972.63;5013761;28;20056;-90
2022/04/02 08:36:02;;;;;;;68.53;24.20;;;;;;;15.51;33.88;91968.94;5048163;28;20124;-90
2022/04/02 08:39:08;;;;;;;61.72;22.10;;;;;;;15.53;34.04;91972.63;5030070;28;20500;-89
2022/04/02 08:41:47;;;;;;;68.22;23.63;;;;;;;15.53;34.18;91982.78;5034232;28;20623;-89
2022/04/02 08:44:24;;;;;;;62.47;23.65;;;;;;;15.55;34.15;91970.09;5048787;28;20579;-90
2022/04/02 08:47:13;;;;;;;58.58;21.10;;;;;;;15.54;34.36;91981.53;5049983;28;20051;-91
2022/04/02 08:49:40;;;;;;;54.85;22.63;;;;;;;15.53;34.18;91986.22;5068735;28;20041;-91
2022/04/02 08:52:09;;;;;;;64.68;22.00;;;;;;;15.53;34.24;91986.22;5017028;28;20040;-89
2022/04/02 08:54:38;;;;;;;57.58;22.65;;;;;;;15.53;34.12;91988.22;5050747;28;20040;-90
2022/04/02 08:57:29;;;;;;;57.78;21.15;;;;;;;15.53;33.82;91991.69;5017072;28;20060;-89
2022/04/02 09:00:04;;;;;;;79.25;22.83;;;;;;;15.55;33.97;91999.31;5036099;28;20077;-91
2022/04/02 09:02:38;;;;;;;53.42;22.50;;;;;;;15.54;34.02;91998.59;5017423;28;20546;-90
2022/04/02 09:05:19;;;;;;;57.67;22.02;;;;;;;15.55;33.84;91994.63;5068121;28;20036;-90
2022/04/02 09:08:09;;;;;;;67.05;24.17;;;;;;;15.56;34.23;91989.94;5037507;28;20048;-91
2022/04/02 09:10:44;;;;;;;63.75;22.05;;;;;;;15.55;34.11;92002.78;5059568;28;20037;-90
2022/04/02 09:13:33;;;;;;;54.70;20.80;;;;;;;15.55;34.17;92004.78;5050188;28;20064;-89
2022/04/02 09:16:03;;;;;;;54.33;21.98;;;;;;;15.55;33.88;92010.22;5022599;28;20098;-91
2022/04/02 09:19:01;;;;;;;61.13;22.48;;;;;;;15.55;33.93;92012.94;5046692;28;21063;-88
2022/04/02 09:21:29;;;;;;;63.60;24.23;;;;;;;15.58;34.31;92006.47;5016370;28;20495;-91
2022/04/02 09:24:23;;;;;;;61.28;26.77;;;;;;;15.56;34.05;92012.44;5017911;28;20049;-89
2022/04/02 09:26:55;;;;;;;61.10;25.05;;;;;;;15.56;34.04;92011.72;5058395;28;20071;-91
2022/04/02 09:29:29;;;;;;;62.50;24.33;;;;;;;15.57;34.15;92005.75;5051009;28;20559;-91
2022/04/02 09:32:12;;;;;;;54.40;23.95;;;;;;;15.57;34.09;92013.91;5016503;28;20049;-90
2022/04/02 09:35:06;;;;;;;59.35;24.33;;;;;;;15.58;34.29;92017.38;5015596;28;20048;-89
2022/04/02 09:37:44;;;;;;;53.25;23.10;;;;;;;15.57;34.41;92016.63;5037449;28;20041;-90
2022/04/02 09:40:10;;;;;;;56.70;22.20;;;;;;;15.57;34.48;92013.19;5052179;28;20124;-91
2022/04/02 09:42:37;;;;;;;50.20;20.92;;;;;;;15.58;34.17;92015.38;5020991;28;20035;-91
2022/04/02 09:45:03;;;;;;;54.05;21.70;;;;;;;15.57;34.20;92024.81;5030215;28;20037;-91
2022/04/02 09:47:47;;;;;;;56.53;22.35;;;;;;;15.59;34.16;92018.84;5050206;28;20065;-91
2022/04/02 09:50:14;;;;;;;47.05;21.67;;;;;;;15.57;34.15;92022.09;5037798;28;20045;-91
2022/04/02 09:52:59;;;;;;;47.08;21.45;;;;;;;15.58;34.22;92025.53;5023445;28;20033;-92
2022/04/02 09:55:29;;;;;;;54.50;21.40;;;;;;;15.59;33.83;92030.44;5033856;28;20060;-93
2022/04/02 09:58:21;;;;;;;47.40;21.13;;;;;;;15.61;34.20;92025.19;5014371;28;20050;-90
2022/04/02 10:01:02;;;;;;;58.13;22.30;;;;;;;15.62;34.33;92037.56;4981268;28;20050;-92
2022/04/02 10:03:50;;;;;;;49.05;22.08;;;;;;;15.61;34.23;92033.38;5003795;28;20115;-91
2022/04/02 10:06:35;;;;;;;53.55;24.17;;;;;;;15.61;34.10;92033.38;5000689;28;20476;-90
2022/04/02 10:09:14;;;;;;;62.63;25.88;;;;;;;15.60;34.32;92028.44;4981290;28;20038;-91
2022/04/02 10:11:52;;;;;;;53.60;26.00;;;;;;;15.68;34.57;92034.72;4976318;28;20513;-90
2022/04/02 10:14:23;;;;;;;72.38;28.23;;;;;;;15.71;34.09;92030.97;4991071;28;20109;-90
2022/04/02 10:16:55;;;;;;;81.33;28.63;;;;;;;15.74;34.31;92040.81;4975374;28;20065;-89
2022/04/02 10:19:26;;;;;;;64.70;25.88;;;;;;;15.70;34.37;92040.41;4981805;28;20272;-87
2022/04/02 10:21:52;;;;;;;68.63;25.35;;;;;;;15.70;34.32;92045.84;5011304;28;20030;-91
2022/04/02 10:24:20;;;;;;;57.60;24.63;;;;;;;15.72;34.48;92040.59;4976277;28;20773;-89
2022/04/02 10:26:51;;;;;;;75.95;28.23;;;;;;;15.75;34.80;92042.28;4981769;28;20054;-91
2022/04/02 10:29:45;;;;;;;68.45;28.27;;;;;;;15.79;34.34;92042.69;5015419;28;20123;-87
2022/04/02 10:32:22;;;;;;;68.63;26.02;;;;;;;15.75;34.39;92050.44;5038295;28;20058;-88
2022/04/02 10:34:55;;;;;;;58.67;24.52;;;;;;;15.74;34.42;92049.72;5070987;28;20530;-90
2022/04/02 10:37:21;;;;;;;71.20;27.92;;;;;;;15.75;33.95;92053.19;5053669;28;20033;-90
2022/04/02 10:40:03;;;;;;;70.00;27.33;;;;;;;15.76;33.73;92060.09;5053905;28;20063;-88
2022/04/02 10:42:36;;;;;;;63.63;27.75;;;;;;;15.73;34.15;92064.59;5039235;28;20037;-90
2022/04/02 10:45:05;;;;;;;63.72;26.42;;;;;;;15.71;34.23;92058.94;5053090;28;20570;-88
2022/04/02 10:47:30;;;;;;;71.53;25.52;;;;;;;15.70;34.13;92060.19;5034922;28;20381;-85
2022/04/02 10:50:04;;;;;;;66.68;25.75;;;;;;;15.72;34.15;92062.41;5034592;28;20407;-86
2022/04/02 10:52:30;;;;;;;88.82;30.23;;;;;;;15.74;34.04;92060.63;5035889;28;20112;-86
2022/04/02 10:54:56;;;;;;;77.45;29.05;;;;;;;15.77;33.97;92058.84;5014845;28;20045;-86
2022/04/02 10:57:21;;;;;;;82.15;31.38;;;;;;;15.81;33.95;92074.84;5015035;28;20814;-89
2022/04/02 10:59:47;;;;;;;87.82;31.98;;;;;;;15.80;34.01;92070.69;5031731;28;20043;-90
2022/04/02 11:02:24;;;;;;;94.43;33.90;;;;;;;15.74;34.02;92070.78;5032061;28;20044;-90
2022/04/02 11:05:02;;;;;;;81.88;32.53;;;;;;;15.72;34.27;92081.47;5047524;28;20272;-90
2022/04/02 11:07:37;;;;;;;93.68;36.55;;;;;;;15.74;34.16;92073.50;5014691;28;20037;-89
2022/04/02 11:10:03;;;;;;;117.70;35.55;;;;;;;15.72;34.18;92078.75;5047982;28;20061;-89
2022/04/02 11:12:29;;;;;;;114.93;37.72;;;;;;;15.73;34.20;92080.22;5049146;28;20052;-89
2022/04/02 11:14:54;;;;;;;94.78;34.42;;;;;;;15.76;33.97;92085.34;5032901;28;20099;-90
2022/04/02 11:17:29;;;;;;;98.38;34.55;;;;;;;15.78;34.05;92087.53;5031677;28;20078;-89
2022/04/02 11:20:04;;;;;;;97.30;36.90;;;;;;;15.75;34.12;92086.59;5047934;28;20052;-91
2022/04/02 11:22:35;;;;;;;107.93;38.65;;;;;;;15.72;33.90;92087.66;5049671;28;20052;-89
2022/04/02 11:25:06;;;;;;;118.10;38.47;;;;;;;15.72;34.11;92081.47;5016168;28;20095;-90
2022/04/02 11:27:34;;;;;;;;;;;;;;;15.77;34.01;92094.25;5032662;28;20114;-90
2022/04/02 11:30:10;;;;;;;112.97;38.03;;;;;;;15.73;34.23;92089.13;5032198;28;19921;-89
2022/04/02 11:32:40;;;;;;;110.63;39.47;;;;;;;15.69;34.24;92090.69;4998671;28;20110;-89
2022/04/02 11:35:07;;;;;;;110.82;36.70;;;;;;;15.71;34.18;92091.63;5006359;28;20125;-90
2022/04/02 11:37:32;;;;;;;100.38;37.55;;;;;;;15.72;34.08;92095.09;4996269;28;20041;-87